sensor_id;sensor_type;location;lat;lon;timestamp;temperature;humidity
8591;DHT22;4333;48.322;14.340;2023-08-24T00:00:10;21.10;99.90
8591;DHT22;4333;48.322;14.340;2023-08-24T00:02:36;21.20;99.90
8591;DHT22;4333;48.322;14.340;2023-08-24T00:05:03;21.30;99.90
8591;DHT22;4333;48.322;14.340;2023-08-24T00:07:29;21.40;99.90
8591;DHT22;4333;48.322;14.340;2023-08-24T00:09:55;21.40;99.90
8591;DHT22;4333;48.322;14.340;2023-08-24T00:12:20;21.40;99.90
8591;DHT22;4333;48.322;14.340;2023-08-24T00:14:46;21.20;99.90
8591;DHT22;4333;48.322;14.340;2023-08-24T00:17:12;21.10;99.90
8591;DHT22;4333;48.322;14.340;2023-08-24T00:19:38;21.00;99.90
8591;DHT22;4333;48.322;14.340;2023-08-24T00:22:03;21.00;99.90
8591;DHT22;4333;48.322;14.340;2023-08-24T00:24:29;21.10;99.90
8591;DHT22;4333;48.322;14.340;2023-08-24T00:26:58;21.00;99.90
8591;DHT22;4333;48.322;14.340;2023-08-24T00:29:26;20.70;99.90
8591;DHT22;4333;48.322;14.340;2023-08-24T00:31:54;20.70;99.90
8591;DHT22;4333;48.322;14.340;2023-08-24T00:34:20;20.70;99.90
8591;DHT22;4333;48.322;14.340;2023-08-24T00:36:46;20.90;99.90
8591;DHT22;4333;48.322;14.340;2023-08-24T00:39:14;20.80;99.90
8591;DHT22;4333;48.322;14.340;2023-08-24T00:41:41;20.80;99.90
8591;DHT22;4333;48.322;14.340;2023-08-24T00:44:07;20.90;99.90
8591;DHT22;4333;48.322;14.340;2023-08-24T00:46:34;20.70;99.90
8591;DHT22;4333;48.322;14.340;2023-08-24T00:49:00;20.40;99.90
8591;DHT22;4333;48.322;14.340;2023-08-24T00:51:26;20.20;99.90
8591;DHT22;4333;48.322;14.340;2023-08-24T00:53:52;20.30;99.90
8591;DHT22;4333;48.322;14.340;2023-08-24T00:56:22;20.40;99.90
8591;DHT22;4333;48.322;14.340;2023-08-24T00:58:50;20.60;99.90
8591;DHT22;4333;48.322;14.340;2023-08-24T01:01:20;20.50;99.90
8591;DHT22;4333;48.322;14.340;2023-08-24T01:03:48;20.50;99.90
8591;DHT22;4333;48.322;14.340;2023-08-24T01:06:14;20.70;99.90
8591;DHT22;4333;48.322;14.340;2023-08-24T01:08:42;20.70;99.90
8591;DHT22;4333;48.322;14.340;2023-08-24T01:14:03;20.80;99.90
8591;DHT22;4333;48.322;14.340;2023-08-24T01:16:33;20.80;99.90
8591;DHT22;4333;48.322;14.340;2023-08-24T01:19:02;20.80;99.90
8591;DHT22;4333;48.322;14.340;2023-08-24T01:21:29;20.80;99.90
8591;DHT22;4333;48.322;14.340;2023-08-24T01:24:11;20.80;99.90
8591;DHT22;4333;48.322;14.340;2023-08-24T01:26:39;20.80;99.90
8591;DHT22;4333;48.322;14.340;2023-08-24T01:29:09;20.90;99.90
8591;DHT22;4333;48.322;14.340;2023-08-24T01:31:35;20.80;99.90
8591;DHT22;4333;48.322;14.340;2023-08-24T01:34:01;20.80;99.90
8591;DHT22;4333;48.322;14.340;2023-08-24T01:36:27;20.90;99.90
8591;DHT22;4333;48.322;14.340;2023-08-24T01:39:05;20.90;99.90
8591;DHT22;4333;48.322;14.340;2023-08-24T01:41:37;21.00;99.90
8591;DHT22;4333;48.322;14.340;2023-08-24T01:44:12;20.90;99.90
8591;DHT22;4333;48.322;14.340;2023-08-24T01:46:42;20.90;99.90
8591;DHT22;4333;48.322;14.340;2023-08-24T01:49:11;20.90;99.90
8591;DHT22;4333;48.322;14.340;2023-08-24T01:51:37;20.80;99.90
8591;DHT22;4333;48.322;14.340;2023-08-24T01:54:06;20.80;99.90
8591;DHT22;4333;48.322;14.340;2023-08-24T01:56:34;20.80;99.90
8591;DHT22;4333;48.322;14.340;2023-08-24T01:59:02;20.70;99.90
8591;DHT22;4333;48.322;14.340;2023-08-24T02:01:27;20.70;99.90
8591;DHT22;4333;48.322;14.340;2023-08-24T02:03:53;20.70;99.90
8591;DHT22;4333;48.322;14.340;2023-08-24T02:06:21;20.70;99.90
8591;DHT22;4333;48.322;14.340;2023-08-24T02:08:49;20.80;99.90
8591;DHT22;4333;48.322;14.340;2023-08-24T02:11:19;20.70;99.90
8591;DHT22;4333;48.322;14.340;2023-08-24T02:13:47;20.70;99.90
8591;DHT22;4333;48.322;14.340;2023-08-24T02:16:15;20.70;99.90
8591;DHT22;4333;48.322;14.340;2023-08-24T02:18:41;20.70;99.90
8591;DHT22;4333;48.322;14.340;2023-08-24T02:21:10;20.70;99.90
8591;DHT22;4333;48.322;14.340;2023-08-24T02:23:38;20.70;99.90
8591;DHT22;4333;48.322;14.340;2023-08-24T02:26:03;20.50;99.90
8591;DHT22;4333;48.322;14.340;2023-08-24T02:28:29;20.50;99.90
8591;DHT22;4333;48.322;14.340;2023-08-24T02:31:01;20.60;99.90
8591;DHT22;4333;48.322;14.340;2023-08-24T02:33:27;20.50;99.90
8591;DHT22;4333;48.322;14.340;2023-08-24T02:35:52;20.50;99.90
8591;DHT22;4333;48.322;14.340;2023-08-24T02:38:21;20.60;99.90
8591;DHT22;4333;48.322;14.340;2023-08-24T02:40:46;20.60;99.90
8591;DHT22;4333;48.322;14.340;2023-08-24T02:43:12;20.40;99.90
8591;DHT22;4333;48.322;14.340;2023-08-24T02:45:38;20.30;99.90
8591;DHT22;4333;48.322;14.340;2023-08-24T02:48:06;20.20;99.90
8591;DHT22;4333;48.322;14.340;2023-08-24T02:50:31;20.30;99.90
8591;DHT22;4333;48.322;14.340;2023-08-24T02:52:57;20.30;99.90
8591;DHT22;4333;48.322;14.340;2023-08-24T02:55:32;20.30;99.90
8591;DHT22;4333;48.322;14.340;2023-08-24T02:57:57;20.20;99.90
8591;DHT22;4333;48.322;14.340;2023-08-24T03:00:23;20.10;99.90
8591;DHT22;4333;48.322;14.340;2023-08-24T03:02:53;20.00;99.90
8591;DHT22;4333;48.322;14.340;2023-08-24T03:05:18;19.80;99.90
8591;DHT22;4333;48.322;14.340;2023-08-24T03:07:44;19.70;99.90
8591;DHT22;4333;48.322;14.340;2023-08-24T03:10:10;19.70;99.90
8591;DHT22;4333;48.322;14.340;2023-08-24T03:12:36;19.80;99.90
8591;DHT22;4333;48.322;14.340;2023-08-24T03:15:04;19.80;99.90
8591;DHT22;4333;48.322;14.340;2023-08-24T03:17:33;19.80;99.90
8591;DHT22;4333;48.322;14.340;2023-08-24T03:19:59;19.80;99.90
8591;DHT22;4333;48.322;14.340;2023-08-24T03:22:24;19.70;99.90
8591;DHT22;4333;48.322;14.340;2023-08-24T03:24:50;19.50;99.90
8591;DHT22;4333;48.322;14.340;2023-08-24T03:27:18;19.40;99.90
8591;DHT22;4333;48.322;14.340;2023-08-24T03:29:44;19.30;99.90
8591;DHT22;4333;48.322;14.340;2023-08-24T03:32:11;19.20;99.90
8591;DHT22;4333;48.322;14.340;2023-08-24T03:34:37;19.10;99.90
8591;DHT22;4333;48.322;14.340;2023-08-24T03:37:03;19.00;99.90
8591;DHT22;4333;48.322;14.340;2023-08-24T03:39:30;19.00;99.90
8591;DHT22;4333;48.322;14.340;2023-08-24T03:41:58;19.10;99.90
8591;DHT22;4333;48.322;14.340;2023-08-24T03:44:24;19.30;99.90
8591;DHT22;4333;48.322;14.340;2023-08-24T03:46:52;19.50;99.90
8591;DHT22;4333;48.322;14.340;2023-08-24T03:49:18;19.50;99.90
8591;DHT22;4333;48.322;14.340;2023-08-24T03:51:43;19.50;99.90
8591;DHT22;4333;48.322;14.340;2023-08-24T03:54:09;19.60;99.90
8591;DHT22;4333;48.322;14.340;2023-08-24T03:56:39;19.60;99.90
8591;DHT22;4333;48.322;14.340;2023-08-24T03:59:07;19.50;99.90
8591;DHT22;4333;48.322;14.340;2023-08-24T04:01:33;19.50;99.90
8591;DHT22;4333;48.322;14.340;2023-08-24T04:03:59;19.50;99.90
8591;DHT22;4333;48.322;14.340;2023-08-24T04:06:24;19.40;99.90
8591;DHT22;4333;48.322;14.340;2023-08-24T04:08:50;19.40;99.90
8591;DHT22;4333;48.322;14.340;2023-08-24T04:11:20;19.50;99.90
8591;DHT22;4333;48.322;14.340;2023-08-24T04:13:45;19.60;99.90
8591;DHT22;4333;48.322;14.340;2023-08-24T04:16:13;19.70;99.90
8591;DHT22;4333;48.322;14.340;2023-08-24T04:18:41;19.60;99.90
8591;DHT22;4333;48.322;14.340;2023-08-24T04:21:09;19.60;99.90
8591;DHT22;4333;48.322;14.340;2023-08-24T04:23:35;19.60;99.90
8591;DHT22;4333;48.322;14.340;2023-08-24T04:26:00;19.60;99.90
8591;DHT22;4333;48.322;14.340;2023-08-24T04:28:30;19.60;99.90
8591;DHT22;4333;48.322;14.340;2023-08-24T04:30:58;19.50;99.90
8591;DHT22;4333;48.322;14.340;2023-08-24T04:33:24;19.50;99.90
8591;DHT22;4333;48.322;14.340;2023-08-24T04:35:50;19.50;99.90
8591;DHT22;4333;48.322;14.340;2023-08-24T04:38:18;19.40;99.90
8591;DHT22;4333;48.322;14.340;2023-08-24T04:40:50;19.40;99.90
8591;DHT22;4333;48.322;14.340;2023-08-24T04:43:19;19.40;99.90
8591;DHT22;4333;48.322;14.340;2023-08-24T04:45:47;19.50;99.90
8591;DHT22;4333;48.322;14.340;2023-08-24T04:48:13;19.60;99.90
8591;DHT22;4333;48.322;14.340;2023-08-24T04:50:39;19.60;99.90
8591;DHT22;4333;48.322;14.340;2023-08-24T04:53:05;19.70;99.90
8591;DHT22;4333;48.322;14.340;2023-08-24T04:55:31;19.70;99.90
8591;DHT22;4333;48.322;14.340;2023-08-24T04:57:59;19.70;99.90
8591;DHT22;4333;48.322;14.340;2023-08-24T05:00:25;19.60;99.90
8591;DHT22;4333;48.322;14.340;2023-08-24T05:02:51;19.70;99.90
8591;DHT22;4333;48.322;14.340;2023-08-24T05:05:16;19.80;99.90
8591;DHT22;4333;48.322;14.340;2023-08-24T05:07:44;19.80;99.90
8591;DHT22;4333;48.322;14.340;2023-08-24T05:10:10;19.70;99.90
8591;DHT22;4333;48.322;14.340;2023-08-24T05:12:40;19.50;99.90
8591;DHT22;4333;48.322;14.340;2023-08-24T05:15:06;19.50;99.90
8591;DHT22;4333;48.322;14.340;2023-08-24T05:17:32;19.60;99.90
8591;DHT22;4333;48.322;14.340;2023-08-24T05:19:59;19.70;99.90
8591;DHT22;4333;48.322;14.340;2023-08-24T05:22:27;19.60;99.90
8591;DHT22;4333;48.322;14.340;2023-08-24T05:24:54;19.60;99.90
8591;DHT22;4333;48.322;14.340;2023-08-24T05:27:20;19.70;99.90
8591;DHT22;4333;48.322;14.340;2023-08-24T05:29:46;19.70;99.90
8591;DHT22;4333;48.322;14.340;2023-08-24T05:32:11;19.90;99.90
8591;DHT22;4333;48.322;14.340;2023-08-24T05:34:40;19.80;99.90
8591;DHT22;4333;48.322;14.340;2023-08-24T05:37:05;19.70;99.90
8591;DHT22;4333;48.322;14.340;2023-08-24T05:39:31;19.70;99.90
8591;DHT22;4333;48.322;14.340;2023-08-24T05:41:57;19.90;99.90
8591;DHT22;4333;48.322;14.340;2023-08-24T05:44:25;20.10;99.90
8591;DHT22;4333;48.322;14.340;2023-08-24T05:46:50;20.30;99.90
8591;DHT22;4333;48.322;14.340;2023-08-24T05:49:16;21.00;99.90
8591;DHT22;4333;48.322;14.340;2023-08-24T05:51:44;22.40;99.90
8591;DHT22;4333;48.322;14.340;2023-08-24T05:54:10;24.40;99.90
8591;DHT22;4333;48.322;14.340;2023-08-24T05:56:35;26.40;99.90
8591;DHT22;4333;48.322;14.340;2023-08-24T05:59:03;27.90;91.80
8591;DHT22;4333;48.322;14.340;2023-08-24T06:01:29;28.40;71.70
8591;DHT22;4333;48.322;14.340;2023-08-24T06:03:54;28.00;70.80
8591;DHT22;4333;48.322;14.340;2023-08-24T06:06:20;27.80;67.60
8591;DHT22;4333;48.322;14.340;2023-08-24T06:08:48;27.50;67.70
8591;DHT22;4333;48.322;14.340;2023-08-24T06:11:15;27.40;68.20
8591;DHT22;4333;48.322;14.340;2023-08-24T06:13:41;26.50;72.10
8591;DHT22;4333;48.322;14.340;2023-08-24T06:16:07;26.00;83.80
8591;DHT22;4333;48.322;14.340;2023-08-24T06:18:32;26.20;87.40
8591;DHT22;4333;48.322;14.340;2023-08-24T06:21:00;26.10;82.80
8591;DHT22;4333;48.322;14.340;2023-08-24T06:23:26;26.20;81.10
8591;DHT22;4333;48.322;14.340;2023-08-24T06:25:52;26.70;78.10
8591;DHT22;4333;48.322;14.340;2023-08-24T06:28:17;27.00;70.50
8591;DHT22;4333;48.322;14.340;2023-08-24T06:30:43;26.70;73.40
8591;DHT22;4333;48.322;14.340;2023-08-24T06:33:10;26.90;69.40
8591;DHT22;4333;48.322;14.340;2023-08-24T06:35:40;27.00;74.10
8591;DHT22;4333;48.322;14.340;2023-08-24T06:38:06;27.10;67.40
8591;DHT22;4333;48.322;14.340;2023-08-24T06:40:32;26.60;66.60
8591;DHT22;4333;48.322;14.340;2023-08-24T06:42:57;27.00;72.90
8591;DHT22;4333;48.322;14.340;2023-08-24T06:45:23;27.40;66.60
8591;DHT22;4333;48.322;14.340;2023-08-24T06:47:51;28.40;60.80
8591;DHT22;4333;48.322;14.340;2023-08-24T06:50:18;28.80;50.00
8591;DHT22;4333;48.322;14.340;2023-08-24T06:52:45;28.40;46.50
8591;DHT22;4333;48.322;14.340;2023-08-24T06:55:13;27.80;53.00
8591;DHT22;4333;48.322;14.340;2023-08-24T06:57:41;27.70;53.50
8591;DHT22;4333;48.322;14.340;2023-08-24T07:00:09;27.80;53.90
8591;DHT22;4333;48.322;14.340;2023-08-24T07:02:36;27.90;57.10
8591;DHT22;4333;48.322;14.340;2023-08-24T07:05:03;28.10;51.20
8591;DHT22;4333;48.322;14.340;2023-08-24T07:07:30;28.00;51.10
8591;DHT22;4333;48.322;14.340;2023-08-24T07:09:56;28.00;50.00
8591;DHT22;4333;48.322;14.340;2023-08-24T07:12:24;28.40;50.30
8591;DHT22;4333;48.322;14.340;2023-08-24T07:14:52;28.70;48.00
8591;DHT22;4333;48.322;14.340;2023-08-24T07:17:17;29.20;47.50
8591;DHT22;4333;48.322;14.340;2023-08-24T07:19:45;29.50;39.60
8591;DHT22;4333;48.322;14.340;2023-08-24T07:22:14;30.50;34.70
8591;DHT22;4333;48.322;14.340;2023-08-24T07:24:42;32.10;28.40
8591;DHT22;4333;48.322;14.340;2023-08-24T07:27:08;33.30;13.20
8591;DHT22;4333;48.322;14.340;2023-08-24T07:29:36;33.90;1.90
8591;DHT22;4333;48.322;14.340;2023-08-24T07:32:02;34.00;1.00
8591;DHT22;4333;48.322;14.340;2023-08-24T07:34:30;33.80;1.00
8591;DHT22;4333;48.322;14.340;2023-08-24T07:36:56;33.70;1.00
8591;DHT22;4333;48.322;14.340;2023-08-24T07:39:24;32.90;1.00
8591;DHT22;4333;48.322;14.340;2023-08-24T07:41:49;32.00;7.50
8591;DHT22;4333;48.322;14.340;2023-08-24T07:44:15;31.90;8.60
8591;DHT22;4333;48.322;14.340;2023-08-24T07:46:43;32.50;10.80
8591;DHT22;4333;48.322;14.340;2023-08-24T07:49:09;32.90;4.90
8591;DHT22;4333;48.322;14.340;2023-08-24T07:51:36;32.80;4.40
8591;DHT22;4333;48.322;14.340;2023-08-24T07:54:02;33.00;4.90
8591;DHT22;4333;48.322;14.340;2023-08-24T07:56:32;33.00;2.60
8591;DHT22;4333;48.322;14.340;2023-08-24T07:59:01;33.30;4.50
8591;DHT22;4333;48.322;14.340;2023-08-24T08:01:26;33.50;4.40
8591;DHT22;4333;48.322;14.340;2023-08-24T08:03:52;33.50;3.80
8591;DHT22;4333;48.322;14.340;2023-08-24T08:06:20;33.30;1.70
8591;DHT22;4333;48.322;14.340;2023-08-24T08:08:47;32.70;4.90
8591;DHT22;4333;48.322;14.340;2023-08-24T08:11:15;32.50;12.60
8591;DHT22;4333;48.322;14.340;2023-08-24T08:13:43;32.30;13.00
8591;DHT22;4333;48.322;14.340;2023-08-24T08:16:12;32.10;12.80
8591;DHT22;4333;48.322;14.340;2023-08-24T08:18:43;31.60;14.20
8591;DHT22;4333;48.322;14.340;2023-08-24T08:21:16;31.00;25.00
8591;DHT22;4333;48.322;14.340;2023-08-24T08:23:45;30.90;31.80
8591;DHT22;4333;48.322;14.340;2023-08-24T08:26:12;31.20;31.90
8591;DHT22;4333;48.322;14.340;2023-08-24T08:28:44;31.50;27.30
8591;DHT22;4333;48.322;14.340;2023-08-24T08:31:11;31.40;28.50
8591;DHT22;4333;48.322;14.340;2023-08-24T08:33:42;31.60;26.90
8591;DHT22;4333;48.322;14.340;2023-08-24T08:36:09;32.00;23.10
8591;DHT22;4333;48.322;14.340;2023-08-24T08:38:38;32.40;19.70
8591;DHT22;4333;48.322;14.340;2023-08-24T08:41:04;32.40;19.80
8591;DHT22;4333;48.322;14.340;2023-08-24T08:43:32;32.20;21.60
8591;DHT22;4333;48.322;14.340;2023-08-24T08:45:58;32.80;21.30
8591;DHT22;4333;48.322;14.340;2023-08-24T08:48:25;32.70;16.40
8591;DHT22;4333;48.322;14.340;2023-08-24T08:50:54;32.80;23.80
8591;DHT22;4333;48.322;14.340;2023-08-24T08:53:22;33.00;17.90
8591;DHT22;4333;48.322;14.340;2023-08-24T08:55:51;32.80;14.40
8591;DHT22;4333;48.322;14.340;2023-08-24T08:58:20;32.90;23.70
8591;DHT22;4333;48.322;14.340;2023-08-24T09:00:47;33.20;19.30
8591;DHT22;4333;48.322;14.340;2023-08-24T09:03:15;33.40;19.20
8591;DHT22;4333;48.322;14.340;2023-08-24T09:05:42;33.50;18.50
8591;DHT22;4333;48.322;14.340;2023-08-24T09:08:09;33.70;11.60
8591;DHT22;4333;48.322;14.340;2023-08-24T09:10:35;33.40;20.60
8591;DHT22;4333;48.322;14.340;2023-08-24T09:13:01;33.40;19.10
8591;DHT22;4333;48.322;14.340;2023-08-24T09:15:32;33.70;13.40
8591;DHT22;4333;48.322;14.340;2023-08-24T09:17:59;34.00;10.40
8591;DHT22;4333;48.322;14.340;2023-08-24T09:20:28;34.00;12.70
8591;DHT22;4333;48.322;14.340;2023-08-24T09:22:57;33.90;12.70
8591;DHT22;4333;48.322;14.340;2023-08-24T09:25:25;34.10;9.70
8591;DHT22;4333;48.322;14.340;2023-08-24T09:28:00;33.90;15.00
8591;DHT22;4333;48.322;14.340;2023-08-24T09:30:36;34.10;11.80
8591;DHT22;4333;48.322;14.340;2023-08-24T09:33:10;33.50;12.50
8591;DHT22;4333;48.322;14.340;2023-08-24T09:35:36;31.70;23.80
8591;DHT22;4333;48.322;14.340;2023-08-24T09:38:28;30.80;36.60
8591;DHT22;4333;48.322;14.340;2023-08-24T09:40:55;30.20;47.10
8591;DHT22;4333;48.322;14.340;2023-08-24T09:43:22;29.80;51.80
8591;DHT22;4333;48.322;14.340;2023-08-24T09:45:52;30.10;53.30
8591;DHT22;4333;48.322;14.340;2023-08-24T09:48:21;31.10;48.10
8591;DHT22;4333;48.322;14.340;2023-08-24T09:50:49;32.10;37.70
8591;DHT22;4333;48.322;14.340;2023-08-24T09:53:22;32.30;32.20
8591;DHT22;4333;48.322;14.340;2023-08-24T09:55:58;31.70;38.80
8591;DHT22;4333;48.322;14.340;2023-08-24T09:58:28;32.10;38.10
8591;DHT22;4333;48.322;14.340;2023-08-24T10:00:54;31.50;37.20
8591;DHT22;4333;48.322;14.340;2023-08-24T10:03:25;31.20;41.70
8591;DHT22;4333;48.322;14.340;2023-08-24T10:05:53;31.20;43.00
8591;DHT22;4333;48.322;14.340;2023-08-24T10:08:34;31.50;39.70
8591;DHT22;4333;48.322;14.340;2023-08-24T10:11:01;31.90;37.30
8591;DHT22;4333;48.322;14.340;2023-08-24T10:16:09;32.70;18.00
8591;DHT22;4333;48.322;14.340;2023-08-24T10:18:40;32.80;21.20
8591;DHT22;4333;48.322;14.340;2023-08-24T10:21:07;33.40;19.80
8591;DHT22;4333;48.322;14.340;2023-08-24T10:23:36;33.30;18.40
8591;DHT22;4333;48.322;14.340;2023-08-24T10:26:03;33.30;15.50
8591;DHT22;4333;48.322;14.340;2023-08-24T10:28:29;32.80;13.60
8591;DHT22;4333;48.322;14.340;2023-08-24T10:30:59;32.80;11.50
8591;DHT22;4333;48.322;14.340;2023-08-24T10:33:27;31.40;12.50
8591;DHT22;4333;48.322;14.340;2023-08-24T10:35:54;30.80;19.80
8591;DHT22;4333;48.322;14.340;2023-08-24T10:38:29;30.80;22.50
8591;DHT22;4333;48.322;14.340;2023-08-24T10:41:04;30.90;24.80
8591;DHT22;4333;48.322;14.340;2023-08-24T10:43:37;31.60;20.80
8591;DHT22;4333;48.322;14.340;2023-08-24T10:46:03;32.60;7.90
8591;DHT22;4333;48.322;14.340;2023-08-24T10:53:42;32.40;5.40
8591;DHT22;4333;48.322;14.340;2023-08-24T10:56:13;31.50;15.30
8591;DHT22;4333;48.322;14.340;2023-08-24T10:58:39;30.80;18.10
8591;DHT22;4333;48.322;14.340;2023-08-24T11:01:14;30.60;20.30
8591;DHT22;4333;48.322;14.340;2023-08-24T11:03:55;30.90;20.60
8591;DHT22;4333;48.322;14.340;2023-08-24T11:06:24;31.40;21.10
8591;DHT22;4333;48.322;14.340;2023-08-24T11:09:06;31.50;18.50
8591;DHT22;4333;48.322;14.340;2023-08-24T11:11:35;31.20;17.30
8591;DHT22;4333;48.322;14.340;2023-08-24T11:16:46;30.90;18.50
8591;DHT22;4333;48.322;14.340;2023-08-24T11:19:13;31.50;20.10
8591;DHT22;4333;48.322;14.340;2023-08-24T11:21:42;31.30;12.10
8591;DHT22;4333;48.322;14.340;2023-08-24T11:24:10;31.60;12.80
8591;DHT22;4333;48.322;14.340;2023-08-24T11:26:46;31.60;14.40
8591;DHT22;4333;48.322;14.340;2023-08-24T11:29:12;31.80;11.40
8591;DHT22;4333;48.322;14.340;2023-08-24T11:31:39;32.10;5.90
8591;DHT22;4333;48.322;14.340;2023-08-24T11:34:07;31.90;6.00
8591;DHT22;4333;48.322;14.340;2023-08-24T11:36:43;31.50;6.80
8591;DHT22;4333;48.322;14.340;2023-08-24T11:39:15;31.20;7.70
8591;DHT22;4333;48.322;14.340;2023-08-24T11:44:49;31.50;8.80
8591;DHT22;4333;48.322;14.340;2023-08-24T11:47:19;32.30;3.00
8591;DHT22;4333;48.322;14.340;2023-08-24T11:49:46;31.80;5.20
8591;DHT22;4333;48.322;14.340;2023-08-24T11:52:12;32.10;5.50
8591;DHT22;4333;48.322;14.340;2023-08-24T11:54:41;32.70;1.00
8591;DHT22;4333;48.322;14.340;2023-08-24T11:57:08;33.10;1.00
8591;DHT22;4333;48.322;14.340;2023-08-24T11:59:35;33.10;1.00
8591;DHT22;4333;48.322;14.340;2023-08-24T12:02:02;33.70;1.00
8591;DHT22;4333;48.322;14.340;2023-08-24T12:04:38;33.70;1.00
8591;DHT22;4333;48.322;14.340;2023-08-24T12:07:14;34.00;1.00
8591;DHT22;4333;48.322;14.340;2023-08-24T12:09:46;34.00;1.00
8591;DHT22;4333;48.322;14.340;2023-08-24T12:12:18;33.60;1.00
8591;DHT22;4333;48.322;14.340;2023-08-24T12:14:47;33.10;1.00
8591;DHT22;4333;48.322;14.340;2023-08-24T12:17:16;33.00;1.00
8591;DHT22;4333;48.322;14.340;2023-08-24T12:19:43;33.70;1.00
8591;DHT22;4333;48.322;14.340;2023-08-24T12:22:16;33.60;1.00
8591;DHT22;4333;48.322;14.340;2023-08-24T12:24:48;32.70;1.00
8591;DHT22;4333;48.322;14.340;2023-08-24T12:27:24;32.20;1.00
8591;DHT22;4333;48.322;14.340;2023-08-24T12:29:53;32.10;1.00
8591;DHT22;4333;48.322;14.340;2023-08-24T12:32:21;31.90;1.00
8591;DHT22;4333;48.322;14.340;2023-08-24T12:34:56;32.10;1.00
8591;DHT22;4333;48.322;14.340;2023-08-24T12:37:21;32.90;1.00
8591;DHT22;4333;48.322;14.340;2023-08-24T12:39:49;33.90;1.00
8591;DHT22;4333;48.322;14.340;2023-08-24T12:42:23;33.40;1.00
8591;DHT22;4333;48.322;14.340;2023-08-24T12:44:48;32.80;1.00
8591;DHT22;4333;48.322;14.340;2023-08-24T12:47:14;32.60;1.00
8591;DHT22;4333;48.322;14.340;2023-08-24T12:49:40;33.10;1.00
8591;DHT22;4333;48.322;14.340;2023-08-24T12:52:08;33.20;1.00
8591;DHT22;4333;48.322;14.340;2023-08-24T12:54:33;33.00;1.00
8591;DHT22;4333;48.322;14.340;2023-08-24T12:56:59;32.80;1.00
8591;DHT22;4333;48.322;14.340;2023-08-24T12:59:25;32.70;1.00
8591;DHT22;4333;48.322;14.340;2023-08-24T13:01:50;32.70;1.00
8591;DHT22;4333;48.322;14.340;2023-08-24T13:04:18;32.50;1.00
8591;DHT22;4333;48.322;14.340;2023-08-24T13:09:09;32.90;1.00
8591;DHT22;4333;48.322;14.340;2023-08-24T13:11:37;32.80;1.00
8591;DHT22;4333;48.322;14.340;2023-08-24T13:14:05;32.60;1.00
8591;DHT22;4333;48.322;14.340;2023-08-24T13:16:35;32.40;1.00
8591;DHT22;4333;48.322;14.340;2023-08-24T13:19:01;32.90;1.00
8591;DHT22;4333;48.322;14.340;2023-08-24T13:21:26;33.10;1.00
8591;DHT22;4333;48.322;14.340;2023-08-24T13:23:57;33.30;1.00
8591;DHT22;4333;48.322;14.340;2023-08-24T13:26:23;33.60;1.00
8591;DHT22;4333;48.322;14.340;2023-08-24T13:28:49;33.90;1.00
8591;DHT22;4333;48.322;14.340;2023-08-24T13:31:15;34.10;1.00
8591;DHT22;4333;48.322;14.340;2023-08-24T13:33:41;34.00;1.00
8591;DHT22;4333;48.322;14.340;2023-08-24T13:36:07;34.00;1.00
8591;DHT22;4333;48.322;14.340;2023-08-24T13:38:35;33.70;1.00
8591;DHT22;4333;48.322;14.340;2023-08-24T13:41:00;34.00;1.00
8591;DHT22;4333;48.322;14.340;2023-08-24T13:43:29;34.50;1.00
8591;DHT22;4333;48.322;14.340;2023-08-24T13:45:54;34.60;1.00
8591;DHT22;4333;48.322;14.340;2023-08-24T13:48:22;33.70;1.00
8591;DHT22;4333;48.322;14.340;2023-08-24T13:50:51;33.30;1.00
8591;DHT22;4333;48.322;14.340;2023-08-24T13:53:19;33.00;1.00
8591;DHT22;4333;48.322;14.340;2023-08-24T13:55:47;33.20;1.00
8591;DHT22;4333;48.322;14.340;2023-08-24T13:58:15;33.50;1.00
8591;DHT22;4333;48.322;14.340;2023-08-24T14:00:41;33.40;1.00
8591;DHT22;4333;48.322;14.340;2023-08-24T14:03:09;33.00;1.00
8591;DHT22;4333;48.322;14.340;2023-08-24T14:05:39;33.20;1.00
8591;DHT22;4333;48.322;14.340;2023-08-24T14:08:07;33.50;1.00
8591;DHT22;4333;48.322;14.340;2023-08-24T14:10:33;33.80;1.00
8591;DHT22;4333;48.322;14.340;2023-08-24T14:12:59;33.30;1.00
8591;DHT22;4333;48.322;14.340;2023-08-24T14:15:27;32.90;1.00
8591;DHT22;4333;48.322;14.340;2023-08-24T14:17:55;32.50;1.00
8591;DHT22;4333;48.322;14.340;2023-08-24T14:20:21;32.50;1.00
8591;DHT22;4333;48.322;14.340;2023-08-24T14:22:49;32.70;1.00
8591;DHT22;4333;48.322;14.340;2023-08-24T14:25:15;32.90;1.00
8591;DHT22;4333;48.322;14.340;2023-08-24T14:27:41;32.70;1.00
8591;DHT22;4333;48.322;14.340;2023-08-24T14:30:07;32.60;1.00
8591;DHT22;4333;48.322;14.340;2023-08-24T14:32:55;33.20;1.00
8591;DHT22;4333;48.322;14.340;2023-08-24T14:35:20;33.00;1.00
8591;DHT22;4333;48.322;14.340;2023-08-24T14:37:46;33.00;1.00
8591;DHT22;4333;48.322;14.340;2023-08-24T14:40:16;32.70;1.00
8591;DHT22;4333;48.322;14.340;2023-08-24T14:42:43;32.60;1.00
8591;DHT22;4333;48.322;14.340;2023-08-24T14:45:09;32.60;1.00
8591;DHT22;4333;48.322;14.340;2023-08-24T14:47:35;33.00;1.00
8591;DHT22;4333;48.322;14.340;2023-08-24T14:50:00;32.90;1.00
8591;DHT22;4333;48.322;14.340;2023-08-24T14:52:26;32.70;1.00
8591;DHT22;4333;48.322;14.340;2023-08-24T14:54:54;32.50;1.00
8591;DHT22;4333;48.322;14.340;2023-08-24T14:57:22;32.50;1.00
8591;DHT22;4333;48.322;14.340;2023-08-24T14:59:48;32.70;1.00
8591;DHT22;4333;48.322;14.340;2023-08-24T15:02:15;32.80;1.00
8591;DHT22;4333;48.322;14.340;2023-08-24T15:04:44;32.90;1.00
8591;DHT22;4333;48.322;14.340;2023-08-24T15:07:12;32.90;1.00
8591;DHT22;4333;48.322;14.340;2023-08-24T15:09:40;32.90;1.00
8591;DHT22;4333;48.322;14.340;2023-08-24T15:12:11;32.90;1.00
8591;DHT22;4333;48.322;14.340;2023-08-24T15:14:37;32.60;1.00
8591;DHT22;4333;48.322;14.340;2023-08-24T15:17:21;32.40;1.00
8591;DHT22;4333;48.322;14.340;2023-08-24T15:19:47;32.40;1.00
8591;DHT22;4333;48.322;14.340;2023-08-24T15:22:16;32.40;1.00
8591;DHT22;4333;48.322;14.340;2023-08-24T15:24:42;32.40;1.00
8591;DHT22;4333;48.322;14.340;2023-08-24T15:27:10;32.20;1.00
8591;DHT22;4333;48.322;14.340;2023-08-24T15:29:36;32.10;1.00
8591;DHT22;4333;48.322;14.340;2023-08-24T15:32:01;32.20;1.00
8591;DHT22;4333;48.322;14.340;2023-08-24T15:34:29;32.30;1.00
8591;DHT22;4333;48.322;14.340;2023-08-24T15:36:57;32.30;1.00
8591;DHT22;4333;48.322;14.340;2023-08-24T15:39:28;32.10;1.00
8591;DHT22;4333;48.322;14.340;2023-08-24T15:41:54;32.20;1.00
8591;DHT22;4333;48.322;14.340;2023-08-24T15:44:22;32.40;1.00
8591;DHT22;4333;48.322;14.340;2023-08-24T15:46:48;32.80;1.00
8591;DHT22;4333;48.322;14.340;2023-08-24T15:49:19;32.80;1.00
8591;DHT22;4333;48.322;14.340;2023-08-24T15:51:54;32.70;1.00
8591;DHT22;4333;48.322;14.340;2023-08-24T15:54:22;32.40;1.00
8591;DHT22;4333;48.322;14.340;2023-08-24T15:56:55;32.30;1.00
8591;DHT22;4333;48.322;14.340;2023-08-24T15:59:23;32.40;1.00
8591;DHT22;4333;48.322;14.340;2023-08-24T16:01:49;32.30;1.00
8591;DHT22;4333;48.322;14.340;2023-08-24T16:04:14;32.30;1.00
8591;DHT22;4333;48.322;14.340;2023-08-24T16:06:50;32.30;1.00
8591;DHT22;4333;48.322;14.340;2023-08-24T16:09:19;32.20;1.00
8591;DHT22;4333;48.322;14.340;2023-08-24T16:11:47;32.20;1.00
8591;DHT22;4333;48.322;14.340;2023-08-24T16:14:18;32.10;1.00